Mugan — 9HA2962 — position and weather

sailwx.info

Track history (hours):
 
Tides and Currents Weather Stations Pressure Air Temp Water Temp Dewpoint Dewpoint Depression Visibility Wind Speed Wind Dir Waves Ship Positions

Mugan

Last reported at 2015-May-24 06:32 UTC. Time now 2015-May-26 07:39 UTC.
Position N 36°29' E 013°60'.

Length 140 m; draft 4 m.

Type: Ship. MMSI: 256914000.

Date/timePositionNaut miles runAvg speedWind from/ knotsBaromVisibWave heightAir tempDewpointWater temp
2015-May-24 06:32N 36°29' E 013°60'8 8.6
2015-May-24 05:33N 36°26' E 014°09'10 9.7
2015-May-24 04:33N 36°21' E 014°20'9 9.5
2015-May-24 03:33N 36°19' E 014°31'9 9.2
2015-May-24 02:33N 36°18' E 014°43'  
2015-May-21 22:33N 36°16' E 023°23'28 9.5
2015-May-21 19:33N 36°36' E 023°48'10 9.6
2015-May-21 18:33N 36°43' E 023°56'9 9.1
2015-May-21 17:34N 36°51' E 024°02'10 9.5
2015-May-21 16:33N 37°00' E 024°03'  
2015-May-14 16:21N 46°17' E 030°44'0 0.0
2015-May-14 15:29N 46°17' E 030°44'0 0.1
2015-May-14 14:05N 46°17' E 030°44'12 8.0
2015-May-14 12:32N 46°18' E 031°02'  
Track history (hours):
 
Tides and Currents Weather Stations Pressure Air Temp Water Temp Dewpoint Dewpoint Depression Visibility Wind Speed Wind Dir Waves Ship Positions

Mugan

Last reported at 2015-May-24 06:32 UTC. Time now 2015-May-26 07:39 UTC.
Position N 36°29' E 013°60'.

Length 140 m; draft 4 m.

Type: Ship. MMSI: 256914000.

Date/timePositionNaut miles runAvg speedWind from/ knotsBaromVisibWave heightAir tempDewpointWater temp
2015-May-24 06:32N 36°29' E 013°60'8 8.6
2015-May-24 05:33N 36°26' E 014°09'10 9.7
2015-May-24 04:33N 36°21' E 014°20'9 9.5
2015-May-24 03:33N 36°19' E 014°31'9 9.2
2015-May-24 02:33N 36°18' E 014°43'  
2015-May-21 22:33N 36°16' E 023°23'28 9.5
2015-May-21 19:33N 36°36' E 023°48'10 9.6
2015-May-21 18:33N 36°43' E 023°56'9 9.1
2015-May-21 17:34N 36°51' E 024°02'10 9.5
2015-May-21 16:33N 37°00' E 024°03'  
2015-May-14 16:21N 46°17' E 030°44'0 0.0
2015-May-14 15:29N 46°17' E 030°44'0 0.1
2015-May-14 14:05N 46°17' E 030°44'12 8.0
2015-May-14 12:32N 46°18' E 031°02'  

Dump ship's entire track history